sensor_id;sensor_type;location;lat;lon;timestamp;temperature;humidity
55721;DHT22;41626;53.098;6.168;2023-04-25T00:01:04;7.20;99.90
55721;DHT22;41626;53.098;6.168;2023-04-25T00:03:31;7.30;99.90
55721;DHT22;41626;53.098;6.168;2023-04-25T00:06:00;7.30;99.90
55721;DHT22;41626;53.098;6.168;2023-04-25T00:08:29;7.20;99.90
55721;DHT22;41626;53.098;6.168;2023-04-25T00:10:56;7.20;99.90
55721;DHT22;41626;53.098;6.168;2023-04-25T00:13:22;7.20;99.90
55721;DHT22;41626;53.098;6.168;2023-04-25T00:15:48;7.10;99.90
55721;DHT22;41626;53.098;6.168;2023-04-25T00:18:15;7.20;99.90
55721;DHT22;41626;53.098;6.168;2023-04-25T00:20:41;7.00;99.90
55721;DHT22;41626;53.098;6.168;2023-04-25T00:23:20;7.00;99.90
55721;DHT22;41626;53.098;6.168;2023-04-25T00:25:48;6.90;99.90
55721;DHT22;41626;53.098;6.168;2023-04-25T00:28:14;6.80;99.90
55721;DHT22;41626;53.098;6.168;2023-04-25T00:30:41;6.80;99.90
55721;DHT22;41626;53.098;6.168;2023-04-25T00:33:07;6.70;99.90
55721;DHT22;41626;53.098;6.168;2023-04-25T00:35:33;6.70;99.90
55721;DHT22;41626;53.098;6.168;2023-04-25T00:37:59;6.60;99.90
55721;DHT22;41626;53.098;6.168;2023-04-25T00:40:25;6.50;99.90
55721;DHT22;41626;53.098;6.168;2023-04-25T00:42:52;6.60;99.90
55721;DHT22;41626;53.098;6.168;2023-04-25T00:45:18;6.60;99.90
55721;DHT22;41626;53.098;6.168;2023-04-25T00:47:44;6.50;99.90
55721;DHT22;41626;53.098;6.168;2023-04-25T00:50:11;6.70;99.90
55721;DHT22;41626;53.098;6.168;2023-04-25T00:52:39;6.50;99.90
55721;DHT22;41626;53.098;6.168;2023-04-25T00:55:06;6.70;99.90
55721;DHT22;41626;53.098;6.168;2023-04-25T00:57:32;6.70;99.90
55721;DHT22;41626;53.098;6.168;2023-04-25T00:59:59;6.60;99.90
55721;DHT22;41626;53.098;6.168;2023-04-25T01:02:25;6.70;99.90
55721;DHT22;41626;53.098;6.168;2023-04-25T01:04:52;6.60;99.90
55721;DHT22;41626;53.098;6.168;2023-04-25T01:07:18;6.60;99.90
55721;DHT22;41626;53.098;6.168;2023-04-25T01:09:46;6.70;99.90
55721;DHT22;41626;53.098;6.168;2023-04-25T01:12:12;6.80;99.90
55721;DHT22;41626;53.098;6.168;2023-04-25T01:14:38;6.80;99.90
55721;DHT22;41626;53.098;6.168;2023-04-25T01:17:04;6.80;99.90
55721;DHT22;41626;53.098;6.168;2023-04-25T01:19:29;6.80;99.90
55721;DHT22;41626;53.098;6.168;2023-04-25T01:21:56;6.90;99.90
55721;DHT22;41626;53.098;6.168;2023-04-25T01:24:22;6.80;99.90
55721;DHT22;41626;53.098;6.168;2023-04-25T01:26:48;6.70;99.90
55721;DHT22;41626;53.098;6.168;2023-04-25T01:29:18;6.80;99.90
55721;DHT22;41626;53.098;6.168;2023-04-25T01:31:45;6.80;99.90
55721;DHT22;41626;53.098;6.168;2023-04-25T01:34:11;6.80;99.90
55721;DHT22;41626;53.098;6.168;2023-04-25T01:36:37;6.70;99.90
55721;DHT22;41626;53.098;6.168;2023-04-25T01:39:03;6.70;99.90
55721;DHT22;41626;53.098;6.168;2023-04-25T01:41:29;6.50;99.90
55721;DHT22;41626;53.098;6.168;2023-04-25T01:43:55;6.60;99.90
55721;DHT22;41626;53.098;6.168;2023-04-25T01:46:20;6.50;99.90
55721;DHT22;41626;53.098;6.168;2023-04-25T01:48:46;6.50;99.90
55721;DHT22;41626;53.098;6.168;2023-04-25T01:51:12;6.60;99.90
55721;DHT22;41626;53.098;6.168;2023-04-25T01:53:38;6.60;99.90
55721;DHT22;41626;53.098;6.168;2023-04-25T01:56:05;6.70;99.90
55721;DHT22;41626;53.098;6.168;2023-04-25T01:58:30;6.70;99.90
55721;DHT22;41626;53.098;6.168;2023-04-25T02:00:56;6.60;99.90
55721;DHT22;41626;53.098;6.168;2023-04-25T02:03:22;6.60;99.90
55721;DHT22;41626;53.098;6.168;2023-04-25T02:05:48;6.70;99.90
55721;DHT22;41626;53.098;6.168;2023-04-25T02:08:14;6.60;99.90
55721;DHT22;41626;53.098;6.168;2023-04-25T02:10:39;6.50;99.90
55721;DHT22;41626;53.098;6.168;2023-04-25T02:13:05;6.50;99.90
55721;DHT22;41626;53.098;6.168;2023-04-25T02:15:31;6.60;99.90
55721;DHT22;41626;53.098;6.168;2023-04-25T02:17:57;6.60;99.90
55721;DHT22;41626;53.098;6.168;2023-04-25T02:20:24;6.60;99.90
55721;DHT22;41626;53.098;6.168;2023-04-25T02:22:50;6.40;99.90
55721;DHT22;41626;53.098;6.168;2023-04-25T02:25:17;6.50;99.90
55721;DHT22;41626;53.098;6.168;2023-04-25T02:27:45;6.50;99.90
55721;DHT22;41626;53.098;6.168;2023-04-25T02:30:11;6.50;99.90
55721;DHT22;41626;53.098;6.168;2023-04-25T02:32:38;6.50;99.90
55721;DHT22;41626;53.098;6.168;2023-04-25T02:35:04;6.50;99.90
55721;DHT22;41626;53.098;6.168;2023-04-25T02:37:31;6.50;99.90
55721;DHT22;41626;53.098;6.168;2023-04-25T02:39:57;6.50;99.90
55721;DHT22;41626;53.098;6.168;2023-04-25T02:42:22;6.10;99.90
55721;DHT22;41626;53.098;6.168;2023-04-25T02:44:48;5.90;99.90
55721;DHT22;41626;53.098;6.168;2023-04-25T02:47:14;5.50;99.90
55721;DHT22;41626;53.098;6.168;2023-04-25T02:49:39;5.20;99.90
55721;DHT22;41626;53.098;6.168;2023-04-25T02:52:05;5.10;99.90
55721;DHT22;41626;53.098;6.168;2023-04-25T02:54:31;5.10;99.90
55721;DHT22;41626;53.098;6.168;2023-04-25T02:56:57;5.30;99.90
55721;DHT22;41626;53.098;6.168;2023-04-25T02:59:23;5.20;99.90
55721;DHT22;41626;53.098;6.168;2023-04-25T03:01:48;5.20;99.90
55721;DHT22;41626;53.098;6.168;2023-04-25T03:04:14;5.20;99.90
55721;DHT22;41626;53.098;6.168;2023-04-25T03:06:40;5.20;99.90
55721;DHT22;41626;53.098;6.168;2023-04-25T03:09:06;5.20;99.90
55721;DHT22;41626;53.098;6.168;2023-04-25T03:11:31;5.30;99.90
55721;DHT22;41626;53.098;6.168;2023-04-25T03:13:57;5.40;99.90
55721;DHT22;41626;53.098;6.168;2023-04-25T03:16:23;5.40;99.90
55721;DHT22;41626;53.098;6.168;2023-04-25T03:18:49;5.50;99.90
55721;DHT22;41626;53.098;6.168;2023-04-25T03:21:16;5.40;99.90
55721;DHT22;41626;53.098;6.168;2023-04-25T03:23:42;5.50;99.90
55721;DHT22;41626;53.098;6.168;2023-04-25T03:26:07;5.60;99.90
55721;DHT22;41626;53.098;6.168;2023-04-25T03:28:33;5.50;99.90
55721;DHT22;41626;53.098;6.168;2023-04-25T03:30:59;5.60;99.90
55721;DHT22;41626;53.098;6.168;2023-04-25T03:33:24;5.60;99.90
55721;DHT22;41626;53.098;6.168;2023-04-25T03:35:51;5.70;99.90
55721;DHT22;41626;53.098;6.168;2023-04-25T03:38:17;5.60;99.90
55721;DHT22;41626;53.098;6.168;2023-04-25T03:40:42;5.40;99.90
55721;DHT22;41626;53.098;6.168;2023-04-25T03:43:08;5.40;99.90
55721;DHT22;41626;53.098;6.168;2023-04-25T03:45:34;5.50;99.90
55721;DHT22;41626;53.098;6.168;2023-04-25T03:48:00;5.40;99.90
55721;DHT22;41626;53.098;6.168;2023-04-25T03:50:25;5.40;99.90
55721;DHT22;41626;53.098;6.168;2023-04-25T03:52:51;5.30;99.90
55721;DHT22;41626;53.098;6.168;2023-04-25T03:55:17;5.40;99.90
55721;DHT22;41626;53.098;6.168;2023-04-25T03:57:43;5.40;99.90
55721;DHT22;41626;53.098;6.168;2023-04-25T04:00:09;5.40;99.90
55721;DHT22;41626;53.098;6.168;2023-04-25T04:02:35;5.50;99.90
55721;DHT22;41626;53.098;6.168;2023-04-25T04:05:03;5.40;99.90
55721;DHT22;41626;53.098;6.168;2023-04-25T04:07:29;5.40;99.90
55721;DHT22;41626;53.098;6.168;2023-04-25T04:09:55;5.30;99.90
55721;DHT22;41626;53.098;6.168;2023-04-25T04:12:20;5.40;99.90
55721;DHT22;41626;53.098;6.168;2023-04-25T04:14:46;5.40;99.90
55721;DHT22;41626;53.098;6.168;2023-04-25T04:17:11;5.40;99.90
55721;DHT22;41626;53.098;6.168;2023-04-25T04:19:37;5.40;99.90
55721;DHT22;41626;53.098;6.168;2023-04-25T04:22:03;5.30;99.90
55721;DHT22;41626;53.098;6.168;2023-04-25T04:24:28;5.30;99.90
55721;DHT22;41626;53.098;6.168;2023-04-25T04:26:54;5.30;99.90
55721;DHT22;41626;53.098;6.168;2023-04-25T04:29:20;5.30;99.90
55721;DHT22;41626;53.098;6.168;2023-04-25T04:31:50;5.30;99.90
55721;DHT22;41626;53.098;6.168;2023-04-25T04:34:16;5.30;99.90
55721;DHT22;41626;53.098;6.168;2023-04-25T04:36:46;5.30;99.90
55721;DHT22;41626;53.098;6.168;2023-04-25T04:39:13;5.40;99.90
55721;DHT22;41626;53.098;6.168;2023-04-25T04:41:38;5.60;99.90
55721;DHT22;41626;53.098;6.168;2023-04-25T04:44:05;5.50;99.90
55721;DHT22;41626;53.098;6.168;2023-04-25T04:46:32;5.60;99.90
55721;DHT22;41626;53.098;6.168;2023-04-25T04:49:04;5.80;99.90
55721;DHT22;41626;53.098;6.168;2023-04-25T04:51:30;6.10;99.90
55721;DHT22;41626;53.098;6.168;2023-04-25T04:53:56;6.30;99.90
55721;DHT22;41626;53.098;6.168;2023-04-25T04:56:24;6.40;99.90
55721;DHT22;41626;53.098;6.168;2023-04-25T04:58:51;6.30;99.90
55721;DHT22;41626;53.098;6.168;2023-04-25T05:01:17;6.30;99.90
55721;DHT22;41626;53.098;6.168;2023-04-25T05:03:43;6.20;99.90
55721;DHT22;41626;53.098;6.168;2023-04-25T05:06:09;6.30;99.90
55721;DHT22;41626;53.098;6.168;2023-04-25T05:08:35;6.20;99.90
55721;DHT22;41626;53.098;6.168;2023-04-25T05:11:01;6.10;99.90
55721;DHT22;41626;53.098;6.168;2023-04-25T05:13:27;6.00;99.90
55721;DHT22;41626;53.098;6.168;2023-04-25T05:15:53;6.00;99.90
55721;DHT22;41626;53.098;6.168;2023-04-25T05:18:18;5.90;99.90
55721;DHT22;41626;53.098;6.168;2023-04-25T05:20:44;6.00;99.90
55721;DHT22;41626;53.098;6.168;2023-04-25T05:23:10;6.00;99.90
55721;DHT22;41626;53.098;6.168;2023-04-25T05:25:35;6.00;99.90
55721;DHT22;41626;53.098;6.168;2023-04-25T05:28:01;6.20;99.90
55721;DHT22;41626;53.098;6.168;2023-04-25T05:30:27;6.20;99.90
55721;DHT22;41626;53.098;6.168;2023-04-25T05:32:52;6.40;99.90
55721;DHT22;41626;53.098;6.168;2023-04-25T05:35:18;6.50;99.90
55721;DHT22;41626;53.098;6.168;2023-04-25T05:37:44;6.50;99.90
55721;DHT22;41626;53.098;6.168;2023-04-25T05:40:10;6.40;99.90
55721;DHT22;41626;53.098;6.168;2023-04-25T05:42:36;6.40;99.90
55721;DHT22;41626;53.098;6.168;2023-04-25T05:45:01;6.40;99.90
55721;DHT22;41626;53.098;6.168;2023-04-25T05:47:27;6.60;99.90
55721;DHT22;41626;53.098;6.168;2023-04-25T05:49:53;6.60;99.90
55721;DHT22;41626;53.098;6.168;2023-04-25T05:52:18;6.90;99.90
55721;DHT22;41626;53.098;6.168;2023-04-25T05:54:44;7.00;99.90
55721;DHT22;41626;53.098;6.168;2023-04-25T05:57:25;7.00;99.90
55721;DHT22;41626;53.098;6.168;2023-04-25T05:59:51;7.10;99.90
55721;DHT22;41626;53.098;6.168;2023-04-25T06:02:19;7.30;99.90
55721;DHT22;41626;53.098;6.168;2023-04-25T06:04:46;7.10;99.90
55721;DHT22;41626;53.098;6.168;2023-04-25T06:07:12;6.90;99.90
55721;DHT22;41626;53.098;6.168;2023-04-25T06:09:38;6.70;99.90
55721;DHT22;41626;53.098;6.168;2023-04-25T06:12:07;6.70;99.90
55721;DHT22;41626;53.098;6.168;2023-04-25T06:14:33;6.50;99.90
55721;DHT22;41626;53.098;6.168;2023-04-25T06:16:59;6.70;99.90
55721;DHT22;41626;53.098;6.168;2023-04-25T06:19:25;6.80;99.90
55721;DHT22;41626;53.098;6.168;2023-04-25T06:21:50;6.60;99.90
55721;DHT22;41626;53.098;6.168;2023-04-25T06:24:16;6.50;99.90
55721;DHT22;41626;53.098;6.168;2023-04-25T06:26:42;6.60;99.90
55721;DHT22;41626;53.098;6.168;2023-04-25T06:29:07;6.70;99.90
55721;DHT22;41626;53.098;6.168;2023-04-25T06:31:33;6.70;99.90
55721;DHT22;41626;53.098;6.168;2023-04-25T06:33:59;6.90;99.90
55721;DHT22;41626;53.098;6.168;2023-04-25T06:36:24;7.20;99.90
55721;DHT22;41626;53.098;6.168;2023-04-25T06:38:51;7.10;99.90
55721;DHT22;41626;53.098;6.168;2023-04-25T06:41:18;7.00;99.90
55721;DHT22;41626;53.098;6.168;2023-04-25T06:43:44;7.00;99.90
55721;DHT22;41626;53.098;6.168;2023-04-25T06:46:10;7.10;99.90
55721;DHT22;41626;53.098;6.168;2023-04-25T06:48:36;7.20;99.90
55721;DHT22;41626;53.098;6.168;2023-04-25T06:51:02;7.60;99.90
55721;DHT22;41626;53.098;6.168;2023-04-25T06:53:28;7.50;99.90
55721;DHT22;41626;53.098;6.168;2023-04-25T06:55:53;7.40;99.90
55721;DHT22;41626;53.098;6.168;2023-04-25T06:58:19;7.50;99.90
55721;DHT22;41626;53.098;6.168;2023-04-25T07:00:45;8.10;99.90
55721;DHT22;41626;53.098;6.168;2023-04-25T07:03:10;8.90;99.90
55721;DHT22;41626;53.098;6.168;2023-04-25T07:05:37;9.00;99.90
55721;DHT22;41626;53.098;6.168;2023-04-25T07:08:02;8.30;99.90
55721;DHT22;41626;53.098;6.168;2023-04-25T07:10:29;7.70;99.90
55721;DHT22;41626;53.098;6.168;2023-04-25T07:12:54;7.50;99.90
55721;DHT22;41626;53.098;6.168;2023-04-25T07:15:20;7.30;99.90
55721;DHT22;41626;53.098;6.168;2023-04-25T07:17:45;7.30;99.90
55721;DHT22;41626;53.098;6.168;2023-04-25T07:20:11;7.00;99.90
55721;DHT22;41626;53.098;6.168;2023-04-25T07:22:37;6.90;99.90
55721;DHT22;41626;53.098;6.168;2023-04-25T07:25:03;7.00;99.90
55721;DHT22;41626;53.098;6.168;2023-04-25T07:27:30;7.10;99.90
55721;DHT22;41626;53.098;6.168;2023-04-25T07:29:56;7.40;99.90
55721;DHT22;41626;53.098;6.168;2023-04-25T07:32:22;7.60;99.90
55721;DHT22;41626;53.098;6.168;2023-04-25T07:34:48;7.60;99.90
55721;DHT22;41626;53.098;6.168;2023-04-25T07:37:14;7.60;99.90
55721;DHT22;41626;53.098;6.168;2023-04-25T07:39:39;7.50;99.90
55721;DHT22;41626;53.098;6.168;2023-04-25T07:42:05;7.40;99.90
55721;DHT22;41626;53.098;6.168;2023-04-25T07:44:34;7.60;99.90
55721;DHT22;41626;53.098;6.168;2023-04-25T07:47:06;7.70;99.90
55721;DHT22;41626;53.098;6.168;2023-04-25T07:49:36;7.60;99.90
55721;DHT22;41626;53.098;6.168;2023-04-25T07:52:03;7.80;99.90
55721;DHT22;41626;53.098;6.168;2023-04-25T07:54:30;8.10;99.90
55721;DHT22;41626;53.098;6.168;2023-04-25T07:56:56;8.40;99.90
55721;DHT22;41626;53.098;6.168;2023-04-25T07:59:22;8.40;99.90
55721;DHT22;41626;53.098;6.168;2023-04-25T08:01:48;8.50;99.90
55721;DHT22;41626;53.098;6.168;2023-04-25T08:04:14;8.50;99.90
55721;DHT22;41626;53.098;6.168;2023-04-25T08:06:39;8.80;99.90
55721;DHT22;41626;53.098;6.168;2023-04-25T08:09:06;8.90;99.90
55721;DHT22;41626;53.098;6.168;2023-04-25T08:11:33;9.20;99.90
55721;DHT22;41626;53.098;6.168;2023-04-25T08:13:58;9.30;99.90
55721;DHT22;41626;53.098;6.168;2023-04-25T08:16:24;8.80;99.90
55721;DHT22;41626;53.098;6.168;2023-04-25T08:18:50;9.00;99.90
55721;DHT22;41626;53.098;6.168;2023-04-25T08:21:16;9.10;99.90
55721;DHT22;41626;53.098;6.168;2023-04-25T08:23:41;8.80;99.90
55721;DHT22;41626;53.098;6.168;2023-04-25T08:26:07;8.80;99.90
55721;DHT22;41626;53.098;6.168;2023-04-25T08:28:33;8.50;99.90
55721;DHT22;41626;53.098;6.168;2023-04-25T08:30:59;8.20;99.90
55721;DHT22;41626;53.098;6.168;2023-04-25T08:33:25;8.00;99.90
55721;DHT22;41626;53.098;6.168;2023-04-25T08:35:50;8.00;99.90
55721;DHT22;41626;53.098;6.168;2023-04-25T08:38:17;7.90;99.90
55721;DHT22;41626;53.098;6.168;2023-04-25T08:40:43;8.10;99.90
55721;DHT22;41626;53.098;6.168;2023-04-25T08:43:09;8.10;99.90
55721;DHT22;41626;53.098;6.168;2023-04-25T08:45:39;7.80;99.90
55721;DHT22;41626;53.098;6.168;2023-04-25T08:48:15;8.00;99.90
55721;DHT22;41626;53.098;6.168;2023-04-25T08:50:51;8.30;99.90
55721;DHT22;41626;53.098;6.168;2023-04-25T08:53:21;8.60;99.90
55721;DHT22;41626;53.098;6.168;2023-04-25T08:55:48;8.90;99.90
55721;DHT22;41626;53.098;6.168;2023-04-25T08:58:15;8.90;99.90
55721;DHT22;41626;53.098;6.168;2023-04-25T09:00:41;9.40;99.90
55721;DHT22;41626;53.098;6.168;2023-04-25T09:03:07;9.80;99.90
55721;DHT22;41626;53.098;6.168;2023-04-25T09:05:33;9.50;99.90
55721;DHT22;41626;53.098;6.168;2023-04-25T09:08:00;9.40;99.90
55721;DHT22;41626;53.098;6.168;2023-04-25T09:10:27;8.50;99.90
55721;DHT22;41626;53.098;6.168;2023-04-25T09:13:24;8.10;99.90
55721;DHT22;41626;53.098;6.168;2023-04-25T09:15:51;8.10;99.90
55721;DHT22;41626;53.098;6.168;2023-04-25T09:18:28;8.00;99.90
55721;DHT22;41626;53.098;6.168;2023-04-25T09:20:55;7.90;99.90
55721;DHT22;41626;53.098;6.168;2023-04-25T09:23:22;7.90;99.90
55721;DHT22;41626;53.098;6.168;2023-04-25T09:25:50;8.10;99.90
55721;DHT22;41626;53.098;6.168;2023-04-25T09:28:15;8.50;99.90
55721;DHT22;41626;53.098;6.168;2023-04-25T09:30:42;8.70;99.90
55721;DHT22;41626;53.098;6.168;2023-04-25T09:33:09;8.90;99.90
55721;DHT22;41626;53.098;6.168;2023-04-25T09:35:39;9.00;99.90
55721;DHT22;41626;53.098;6.168;2023-04-25T09:38:13;9.20;99.90
55721;DHT22;41626;53.098;6.168;2023-04-25T09:40:43;9.30;99.90
55721;DHT22;41626;53.098;6.168;2023-04-25T09:43:18;9.60;99.90
55721;DHT22;41626;53.098;6.168;2023-04-25T09:45:43;9.50;99.90
55721;DHT22;41626;53.098;6.168;2023-04-25T09:48:11;9.30;99.90
55721;DHT22;41626;53.098;6.168;2023-04-25T09:50:38;9.80;99.90
55721;DHT22;41626;53.098;6.168;2023-04-25T09:53:05;9.70;99.90
55721;DHT22;41626;53.098;6.168;2023-04-25T09:55:34;9.30;99.90
55721;DHT22;41626;53.098;6.168;2023-04-25T09:58:04;9.10;99.90
55721;DHT22;41626;53.098;6.168;2023-04-25T10:00:33;9.20;99.90
55721;DHT22;41626;53.098;6.168;2023-04-25T10:03:05;9.60;99.90
55721;DHT22;41626;53.098;6.168;2023-04-25T10:05:32;9.80;99.90
55721;DHT22;41626;53.098;6.168;2023-04-25T10:08:02;10.20;99.90
55721;DHT22;41626;53.098;6.168;2023-04-25T10:10:32;10.50;99.90
55721;DHT22;41626;53.098;6.168;2023-04-25T10:13:05;10.10;99.90
55721;DHT22;41626;53.098;6.168;2023-04-25T10:15:34;10.20;99.90
55721;DHT22;41626;53.098;6.168;2023-04-25T10:18:01;9.70;99.90
55721;DHT22;41626;53.098;6.168;2023-04-25T10:20:28;9.60;99.90
55721;DHT22;41626;53.098;6.168;2023-04-25T10:23:06;9.50;99.90
55721;DHT22;41626;53.098;6.168;2023-04-25T10:25:34;9.70;99.90
55721;DHT22;41626;53.098;6.168;2023-04-25T10:28:00;10.00;99.90
55721;DHT22;41626;53.098;6.168;2023-04-25T10:30:27;10.00;99.90
55721;DHT22;41626;53.098;6.168;2023-04-25T10:32:55;9.90;99.90
55721;DHT22;41626;53.098;6.168;2023-04-25T10:35:26;9.10;99.90
55721;DHT22;41626;53.098;6.168;2023-04-25T10:38:08;8.30;99.90
55721;DHT22;41626;53.098;6.168;2023-04-25T10:40:34;7.80;99.90
55721;DHT22;41626;53.098;6.168;2023-04-25T10:45:56;7.10;99.90
55721;DHT22;41626;53.098;6.168;2023-04-25T10:48:26;7.10;99.90
55721;DHT22;41626;53.098;6.168;2023-04-25T10:51:11;7.60;99.90
55721;DHT22;41626;53.098;6.168;2023-04-25T10:53:37;7.50;99.90
55721;DHT22;41626;53.098;6.168;2023-04-25T10:56:11;7.70;99.90
55721;DHT22;41626;53.098;6.168;2023-04-25T10:58:42;8.00;99.90
55721;DHT22;41626;53.098;6.168;2023-04-25T11:01:08;8.10;99.90
55721;DHT22;41626;53.098;6.168;2023-04-25T11:03:39;8.40;99.90
55721;DHT22;41626;53.098;6.168;2023-04-25T11:06:15;8.40;99.90
55721;DHT22;41626;53.098;6.168;2023-04-25T11:08:49;8.50;99.90
55721;DHT22;41626;53.098;6.168;2023-04-25T11:11:17;8.30;99.90
55721;DHT22;41626;53.098;6.168;2023-04-25T11:13:43;8.40;99.90
55721;DHT22;41626;53.098;6.168;2023-04-25T11:16:09;8.40;99.90
55721;DHT22;41626;53.098;6.168;2023-04-25T11:18:35;8.60;99.90
55721;DHT22;41626;53.098;6.168;2023-04-25T11:21:02;9.30;99.90
55721;DHT22;41626;53.098;6.168;2023-04-25T11:23:29;9.40;99.90
55721;DHT22;41626;53.098;6.168;2023-04-25T11:25:55;8.60;99.90
55721;DHT22;41626;53.098;6.168;2023-04-25T11:28:22;8.30;99.90
55721;DHT22;41626;53.098;6.168;2023-04-25T11:30:52;7.90;99.90
55721;DHT22;41626;53.098;6.168;2023-04-25T11:33:17;8.30;99.90
55721;DHT22;41626;53.098;6.168;2023-04-25T11:35:43;8.80;99.90
55721;DHT22;41626;53.098;6.168;2023-04-25T11:38:09;9.30;99.90
55721;DHT22;41626;53.098;6.168;2023-04-25T11:40:36;9.80;99.90
55721;DHT22;41626;53.098;6.168;2023-04-25T11:43:02;9.80;99.90
55721;DHT22;41626;53.098;6.168;2023-04-25T11:45:28;9.00;99.90
55721;DHT22;41626;53.098;6.168;2023-04-25T11:47:56;8.60;99.90
55721;DHT22;41626;53.098;6.168;2023-04-25T11:50:21;7.30;99.90
55721;DHT22;41626;53.098;6.168;2023-04-25T11:52:48;7.00;99.90
55721;DHT22;41626;53.098;6.168;2023-04-25T11:55:15;7.00;99.90
55721;DHT22;41626;53.098;6.168;2023-04-25T11:57:42;7.60;99.90
55721;DHT22;41626;53.098;6.168;2023-04-25T12:00:10;7.70;99.90
55721;DHT22;41626;53.098;6.168;2023-04-25T12:02:37;7.70;99.90
55721;DHT22;41626;53.098;6.168;2023-04-25T12:05:06;7.90;99.90
55721;DHT22;41626;53.098;6.168;2023-04-25T12:07:34;8.10;99.90
55721;DHT22;41626;53.098;6.168;2023-04-25T12:10:03;8.20;99.90
55721;DHT22;41626;53.098;6.168;2023-04-25T12:12:33;8.40;99.90
55721;DHT22;41626;53.098;6.168;2023-04-25T12:15:09;8.80;99.90
55721;DHT22;41626;53.098;6.168;2023-04-25T12:17:35;8.80;99.90
55721;DHT22;41626;53.098;6.168;2023-04-25T12:20:10;8.80;99.90
55721;DHT22;41626;53.098;6.168;2023-04-25T12:22:37;8.50;99.90
55721;DHT22;41626;53.098;6.168;2023-04-25T12:25:04;8.50;99.90
55721;DHT22;41626;53.098;6.168;2023-04-25T12:27:32;8.60;99.90
55721;DHT22;41626;53.098;6.168;2023-04-25T12:29:57;9.00;99.90
55721;DHT22;41626;53.098;6.168;2023-04-25T12:32:24;9.30;99.90
55721;DHT22;41626;53.098;6.168;2023-04-25T12:34:50;9.30;99.90
55721;DHT22;41626;53.098;6.168;2023-04-25T12:37:16;9.70;99.90
55721;DHT22;41626;53.098;6.168;2023-04-25T12:39:41;9.30;99.90
55721;DHT22;41626;53.098;6.168;2023-04-25T12:42:07;9.30;99.90
55721;DHT22;41626;53.098;6.168;2023-04-25T12:44:33;9.40;99.90
55721;DHT22;41626;53.098;6.168;2023-04-25T12:46:59;9.50;99.90
55721;DHT22;41626;53.098;6.168;2023-04-25T12:49:25;9.80;99.90
55721;DHT22;41626;53.098;6.168;2023-04-25T12:51:51;9.90;99.90
55721;DHT22;41626;53.098;6.168;2023-04-25T12:54:17;9.90;99.90
55721;DHT22;41626;53.098;6.168;2023-04-25T12:56:42;9.50;99.90
55721;DHT22;41626;53.098;6.168;2023-04-25T12:59:08;9.90;99.90
55721;DHT22;41626;53.098;6.168;2023-04-25T13:01:34;10.20;99.90
55721;DHT22;41626;53.098;6.168;2023-04-25T13:04:00;10.60;99.90
55721;DHT22;41626;53.098;6.168;2023-04-25T13:06:26;10.70;99.90
55721;DHT22;41626;53.098;6.168;2023-04-25T13:08:52;10.40;99.90
55721;DHT22;41626;53.098;6.168;2023-04-25T13:11:18;10.00;99.90
55721;DHT22;41626;53.098;6.168;2023-04-25T13:13:44;9.20;99.90
55721;DHT22;41626;53.098;6.168;2023-04-25T13:16:10;8.80;99.90
55721;DHT22;41626;53.098;6.168;2023-04-25T13:18:35;8.70;99.90
55721;DHT22;41626;53.098;6.168;2023-04-25T13:21:01;9.00;99.90
55721;DHT22;41626;53.098;6.168;2023-04-25T13:23:28;9.30;99.90
55721;DHT22;41626;53.098;6.168;2023-04-25T13:25:54;9.60;99.90
55721;DHT22;41626;53.098;6.168;2023-04-25T13:28:21;10.10;99.90
55721;DHT22;41626;53.098;6.168;2023-04-25T13:30:47;10.40;99.90
55721;DHT22;41626;53.098;6.168;2023-04-25T13:33:14;10.30;99.90
55721;DHT22;41626;53.098;6.168;2023-04-25T13:35:40;9.90;99.90
55721;DHT22;41626;53.098;6.168;2023-04-25T13:38:07;9.40;99.90
55721;DHT22;41626;53.098;6.168;2023-04-25T13:40:32;9.00;99.90
55721;DHT22;41626;53.098;6.168;2023-04-25T13:42:58;9.20;99.90
55721;DHT22;41626;53.098;6.168;2023-04-25T13:45:24;9.20;99.90
55721;DHT22;41626;53.098;6.168;2023-04-25T13:47:50;8.80;99.90
55721;DHT22;41626;53.098;6.168;2023-04-25T13:50:16;8.80;99.90
55721;DHT22;41626;53.098;6.168;2023-04-25T13:52:42;8.80;99.90
55721;DHT22;41626;53.098;6.168;2023-04-25T13:55:08;8.70;99.90
55721;DHT22;41626;53.098;6.168;2023-04-25T13:57:35;8.60;99.90
55721;DHT22;41626;53.098;6.168;2023-04-25T14:00:02;8.90;99.90
55721;DHT22;41626;53.098;6.168;2023-04-25T14:02:35;9.50;99.90
55721;DHT22;41626;53.098;6.168;2023-04-25T14:05:01;9.60;99.90
55721;DHT22;41626;53.098;6.168;2023-04-25T14:07:27;9.80;99.90
55721;DHT22;41626;53.098;6.168;2023-04-25T14:09:53;10.10;99.90
55721;DHT22;41626;53.098;6.168;2023-04-25T14:12:19;10.10;99.90
55721;DHT22;41626;53.098;6.168;2023-04-25T14:14:44;9.30;99.90
55721;DHT22;41626;53.098;6.168;2023-04-25T14:17:10;9.30;99.90
55721;DHT22;41626;53.098;6.168;2023-04-25T14:19:36;9.30;99.90
55721;DHT22;41626;53.098;6.168;2023-04-25T14:22:04;9.30;99.90
55721;DHT22;41626;53.098;6.168;2023-04-25T14:24:29;9.40;99.90
55721;DHT22;41626;53.098;6.168;2023-04-25T14:26:55;9.50;99.90
55721;DHT22;41626;53.098;6.168;2023-04-25T14:29:21;9.70;99.90
55721;DHT22;41626;53.098;6.168;2023-04-25T14:31:47;9.60;99.90
55721;DHT22;41626;53.098;6.168;2023-04-25T14:34:13;9.40;99.90
55721;DHT22;41626;53.098;6.168;2023-04-25T14:36:38;9.20;99.90
55721;DHT22;41626;53.098;6.168;2023-04-25T14:39:04;9.10;99.90
55721;DHT22;41626;53.098;6.168;2023-04-25T14:41:32;9.00;99.90
55721;DHT22;41626;53.098;6.168;2023-04-25T14:43:58;9.40;99.90
55721;DHT22;41626;53.098;6.168;2023-04-25T14:46:24;9.50;99.90
55721;DHT22;41626;53.098;6.168;2023-04-25T14:48:50;9.80;99.90
55721;DHT22;41626;53.098;6.168;2023-04-25T14:51:16;9.90;99.90
55721;DHT22;41626;53.098;6.168;2023-04-25T14:53:42;9.50;99.90
55721;DHT22;41626;53.098;6.168;2023-04-25T14:56:08;8.50;99.90
55721;DHT22;41626;53.098;6.168;2023-04-25T14:58:34;7.90;99.90
55721;DHT22;41626;53.098;6.168;2023-04-25T15:01:00;8.00;99.90
55721;DHT22;41626;53.098;6.168;2023-04-25T15:03:26;8.00;99.90
55721;DHT22;41626;53.098;6.168;2023-04-25T15:05:52;8.20;99.90
55721;DHT22;41626;53.098;6.168;2023-04-25T15:08:19;8.10;99.90
55721;DHT22;41626;53.098;6.168;2023-04-25T15:10:46;8.10;99.90
55721;DHT22;41626;53.098;6.168;2023-04-25T15:13:12;8.60;99.90
55721;DHT22;41626;53.098;6.168;2023-04-25T15:15:37;8.70;99.90
55721;DHT22;41626;53.098;6.168;2023-04-25T15:18:03;8.90;99.90
55721;DHT22;41626;53.098;6.168;2023-04-25T15:20:29;9.30;99.90
55721;DHT22;41626;53.098;6.168;2023-04-25T15:22:55;9.10;99.90
55721;DHT22;41626;53.098;6.168;2023-04-25T15:25:22;8.50;99.90
55721;DHT22;41626;53.098;6.168;2023-04-25T15:27:48;8.40;99.90
55721;DHT22;41626;53.098;6.168;2023-04-25T15:30:15;7.90;99.90
55721;DHT22;41626;53.098;6.168;2023-04-25T15:32:42;7.30;99.90
55721;DHT22;41626;53.098;6.168;2023-04-25T15:35:08;7.80;99.90
55721;DHT22;41626;53.098;6.168;2023-04-25T15:37:35;7.90;99.90
55721;DHT22;41626;53.098;6.168;2023-04-25T15:40:04;7.90;99.90
55721;DHT22;41626;53.098;6.168;2023-04-25T15:42:35;8.10;99.90
55721;DHT22;41626;53.098;6.168;2023-04-25T15:45:02;8.40;99.90